Time;durP1;ratioP1;P1;durP2;ratioP2;P2;SDS_P1;SDS_P2;PMS_P1;PMS_P2;Temp;Humidity;BMP_temperature;BMP_pressure;BME280_temperature;BME280_humidity;BME280_pressure;Samples;Min_cycle;Max_cycle;Signal;HPM_P1;HPM_P2
2022/03/06 00:02:06;;;;;;;;;;;;;;;0.69;47.97;92518.19;2040631;70;20528;-72
2022/03/06 00:04:32;;;;;;;;;;;;;;;0.71;46.94;92512.81;2040401;70;20585;-73
2022/03/06 00:06:57;;;;;;;;;;;;;;;0.63;47.68;92517.59;2040668;70;20070;-72
2022/03/06 00:09:23;;;;;;;;;;;;;;;0.63;46.95;92523.88;2040817;70;20405;-72
2022/03/06 00:11:49;;;;;;;;;;;;;;;0.60;47.02;92525.00;2040815;70;20055;-72
2022/03/06 00:14:15;;;;;;;;;;;;;;;0.71;47.40;92521.13;2040793;70;20431;-72
2022/03/06 00:16:41;;;;;;;;;;;;;;;0.48;47.60;92521.06;2040585;70;20055;-72
2022/03/06 00:19:06;;;;;;;;;;;;;;;0.50;46.95;92519.25;2041046;70;20150;-72
2022/03/06 00:21:32;;;;;;;;;;;;;;;0.48;47.43;92516.28;2040784;70;20055;-72
2022/03/06 00:23:57;;;;;;;;;;;;;;;0.52;48.49;92526.25;2040885;70;20062;-72
2022/03/06 00:26:23;;;;;;;;;;;;;;;0.50;47.72;92512.94;2040750;70;20084;-71
2022/03/06 00:28:48;;;;;;;;;;;;;;;0.36;47.95;92523.44;2040818;70;20153;-71
2022/03/06 00:31:13;;;;;;;;;;;;;;;0.39;47.62;92524.38;2041374;70;20050;-71
2022/03/06 00:33:39;;;;;;;;;;;;;;;0.33;48.19;92519.00;2037545;70;20059;-71
2022/03/06 00:36:04;;;;;;;;;;;;;;;0.42;48.70;92523.28;2040861;70;20082;-72
2022/03/06 00:38:30;;;;;;;;;;;;;;;0.44;47.58;92526.22;2040498;70;20431;-72
2022/03/06 00:40:56;;;;;;;;;;;;;;;0.35;48.09;92529.53;2040106;70;20064;-72
2022/03/06 00:43:22;;;;;;;;;;;;;;;0.35;47.06;92527.50;2041099;70;20060;-71
2022/03/06 00:45:47;;;;;;;;;;;;;;;0.30;47.81;92530.44;2041140;70;20054;-72
2022/03/06 00:48:12;;;;;;;;;;;;;;;0.28;47.79;92521.94;2040644;70;20059;-71
2022/03/06 00:50:38;;;;;;;;;;;;;;;0.24;47.98;92525.81;2041044;70;20057;-71
2022/03/06 00:53:05;;;;;;;;;;;;;;;0.22;47.53;92524.84;2040727;70;20059;-71
2022/03/06 00:55:32;;;;;;;;;;;;;;;0.17;47.25;92523.00;2040901;70;20051;-72
2022/03/06 00:58:05;;;;;;;;;;;;;;;0.15;49.00;92525.59;2040596;70;20123;-71
2022/03/06 01:00:34;;;;;;;;;;;;;;;0.18;46.79;92525.25;2040586;70;20727;-72
2022/03/06 01:03:00;;;;;;;;;;;;;;;0.01;48.48;92524.25;2041193;70;20146;-72
2022/03/06 01:05:25;;;;;;;;;;;;;;;-0.06;48.54;92520.88;2041749;70;20489;-72
2022/03/06 01:07:50;;;;;;;;;;;;;;;-0.04;46.91;92512.03;2041605;70;20088;-73
2022/03/06 01:10:16;;;;;;;;;;;;;;;-0.13;47.71;92520.84;2041459;70;20108;-72
2022/03/06 01:12:41;;;;;;;;;;;;;;;-0.16;48.54;92516.41;2040859;70;20050;-72
2022/03/06 01:15:07;;;;;;;;;;;;;;;-0.08;48.98;92517.91;2041410;70;20154;-72
2022/03/06 01:17:32;;;;;;;;;;;;;;;-0.20;49.16;92518.78;2041161;70;20447;-72
2022/03/06 01:19:58;;;;;;;;;;;;;;;-0.27;48.83;92517.47;2041090;70;20052;-72
2022/03/06 01:22:23;;;;;;;;;;;;;;;-0.31;49.10;92517.81;2041046;70;20545;-73
2022/03/06 01:24:49;;;;;;;;;;;;;;;-0.40;49.25;92526.59;2041177;70;20184;-73
2022/03/06 01:27:14;;;;;;;;;;;;;;;-0.28;49.17;92527.03;2041546;70;20043;-72
2022/03/06 01:29:40;;;;;;;;;;;;;;;-0.29;48.83;92526.28;2041445;70;20139;-72
2022/03/06 01:32:05;;;;;;;;;;;;;;;-0.42;49.69;92520.13;2041106;70;20048;-73
2022/03/06 01:34:31;;;;;;;;;;;;;;;-0.30;48.78;92513.00;2041326;70;20043;-73
2022/03/06 01:36:56;;;;;;;;;;;;;;;-0.44;48.33;92514.41;2041239;70;20181;-73
2022/03/06 01:39:21;;;;;;;;;;;;;;;-0.56;48.46;92511.19;2041109;70;20131;-73
2022/03/06 01:41:47;;;;;;;;;;;;;;;-0.33;47.30;92520.34;2046344;70;20063;-72
2022/03/06 01:44:13;;;;;;;;;;;;;;;-0.46;48.97;92522.50;2041231;70;20070;-73
2022/03/06 01:46:39;;;;;;;;;;;;;;;-0.48;49.88;92516.78;2041314;70;20151;-73
2022/03/06 01:49:04;;;;;;;;;;;;;;;-0.60;49.58;92519.81;2041468;70;20108;-73
2022/03/06 01:51:30;;;;;;;;;;;;;;;-0.50;50.42;92520.09;2041037;70;20048;-73
2022/03/06 01:53:55;;;;;;;;;;;;;;;-0.53;50.12;92527.44;2040793;70;20054;-73
2022/03/06 01:56:20;;;;;;;;;;;;;;;-0.44;48.80;92526.22;2041396;70;20469;-73
2022/03/06 01:58:46;;;;;;;;;;;;;;;-0.60;49.51;92530.16;2040594;70;20062;-72
2022/03/06 02:01:12;;;;;;;;;;;;;;;-0.53;48.63;92521.91;2037690;70;20063;-72
2022/03/06 02:03:37;;;;;;;;;;;;;;;-0.52;50.45;92520.63;2040494;70;20148;-72
2022/03/06 02:06:05;;;;;;;;;;;;;;;-0.64;49.82;92529.75;2037476;70;20553;-72
2022/03/06 02:08:30;;;;;;;;;;;;;;;-0.60;50.47;92528.13;2037948;70;20052;-73
2022/03/06 02:10:56;;;;;;;;;;;;;;;-0.70;50.54;92529.16;2038150;70;20055;-72
2022/03/06 02:13:21;;;;;;;;;;;;;;;-0.79;51.26;92535.91;2038046;70;20048;-72
2022/03/06 02:15:47;;;;;;;;;;;;;;;-0.67;49.88;92534.34;2037657;70;20078;-72
2022/03/06 02:18:13;;;;;;;;;;;;;;;-0.76;49.16;92529.31;2037742;70;20048;-73
2022/03/06 02:20:38;;;;;;;;;;;;;;;-0.47;48.25;92526.53;2037967;70;20044;-73
2022/03/06 02:23:04;;;;;;;;;;;;;;;-0.67;49.28;92528.09;2037477;70;20462;-73
2022/03/06 02:25:30;;;;;;;;;;;;;;;-0.72;48.85;92526.94;2038175;70;20048;-74
2022/03/06 02:27:57;;;;;;;;;;;;;;;-0.48;47.61;92525.81;2038137;70;20512;-74
2022/03/06 02:30:24;;;;;;;;;;;;;;;-0.77;48.90;92527.84;2038123;70;20052;-74
2022/03/06 02:32:50;;;;;;;;;;;;;;;-0.84;49.99;92520.94;2038125;70;20444;-74
2022/03/06 02:35:17;;;;;;;;;;;;;;;-1.09;51.70;92519.84;2038214;70;20051;-74
2022/03/06 02:37:43;;;;;;;;;;;;;;;-1.11;51.83;92522.38;2037788;70;20048;-74
2022/03/06 02:40:09;;;;;;;;;;;;;;;-1.02;51.23;92524.66;2038170;70;20063;-74
2022/03/06 02:42:36;;;;;;;;;;;;;;;-1.09;51.12;92517.81;2038234;70;20056;-74
2022/03/06 02:45:10;;;;;;;;;;;;;;;-1.03;51.02;92515.66;2038027;70;20059;-73
2022/03/06 02:47:36;;;;;;;;;;;;;;;-1.00;50.75;92524.88;2038249;70;20092;-73
2022/03/06 02:50:02;;;;;;;;;;;;;;;-1.11;50.28;92525.88;2038154;70;20488;-74
2022/03/06 02:52:28;;;;;;;;;;;;;;;-1.21;51.77;92524.88;2038262;70;20064;-73
2022/03/06 02:54:53;;;;;;;;;;;;;;;-1.12;51.00;92527.16;2038161;70;20048;-73
2022/03/06 02:57:19;;;;;;;;;;;;;;;-1.12;50.94;92529.19;2038143;70;20083;-73
2022/03/06 02:59:44;;;;;;;;;;;;;;;-0.84;47.33;92529.25;2038063;70;20044;-73
2022/03/06 03:02:10;;;;;;;;;;;;;;;-1.10;49.84;92532.91;2037560;70;20060;-73
2022/03/06 03:04:37;;;;;;;;;;;;;;;-1.19;51.40;92527.88;2038199;70;20141;-73
2022/03/06 03:07:02;;;;;;;;;;;;;;;-1.02;49.82;92522.66;2038110;70;20494;-73
2022/03/06 03:09:28;;;;;;;;;;;;;;;-1.27;50.22;92532.56;2038206;70;20051;-73
2022/03/06 03:11:56;;;;;;;;;;;;;;;-1.37;51.13;92537.81;2038231;70;20070;-74
2022/03/06 03:14:21;;;;;;;;;;;;;;;-1.22;51.19;92536.47;2037432;70;20076;-74
2022/03/06 03:16:47;;;;;;;;;;;;;;;-1.45;50.25;92539.75;2038055;70;20099;-74
2022/03/06 03:19:12;;;;;;;;;;;;;;;-1.52;51.50;92532.13;2038064;70;20165;-74
2022/03/06 03:21:38;;;;;;;;;;;;;;;-1.47;51.42;92539.53;2038067;70;20074;-74
2022/03/06 03:24:03;;;;;;;;;;;;;;;-1.42;52.55;92535.94;2038193;70;20048;-74
2022/03/06 03:26:29;;;;;;;;;;;;;;;-1.37;51.85;92537.81;2038051;70;20481;-74
2022/03/06 03:28:55;;;;;;;;;;;;;;;-1.47;51.35;92539.53;2037985;70;20055;-74
2022/03/06 03:31:20;;;;;;;;;;;;;;;-1.51;51.52;92541.16;2037550;70;20052;-74
2022/03/06 03:33:46;;;;;;;;;;;;;;;-1.65;52.10;92541.22;2038167;70;20047;-74
2022/03/06 03:36:11;;;;;;;;;;;;;;;-1.41;51.23;92536.69;2037545;70;20082;-73
2022/03/06 03:38:38;;;;;;;;;;;;;;;-1.72;52.36;92539.09;2038186;70;20074;-73
2022/03/06 03:41:04;;;;;;;;;;;;;;;-1.67;51.81;92545.78;2038044;70;20119;-73
2022/03/06 03:43:29;;;;;;;;;;;;;;;-1.67;52.08;92546.53;2037496;70;20059;-73
2022/03/06 03:45:57;;;;;;;;;;;;;;;-1.55;50.94;92549.78;2037896;70;20566;-74
2022/03/06 03:48:26;;;;;;;;;;;;;;;-1.66;51.91;92555.53;2038198;70;20107;-71
2022/03/06 03:50:54;;;;;;;;;;;;;;;-1.67;51.48;92556.81;2038035;70;20087;-74
2022/03/06 03:53:20;;;;;;;;;;;;;;;-1.67;51.57;92554.81;2038262;70;20163;-73
2022/03/06 03:55:46;;;;;;;;;;;;;;;-1.78;51.64;92565.34;2038009;70;20084;-73
2022/03/06 03:58:11;;;;;;;;;;;;;;;-1.67;51.02;92576.16;2037986;70;20079;-73
2022/03/06 04:00:37;;;;;;;;;;;;;;;-1.65;51.34;92566.06;2037824;70;20131;-73
2022/03/06 04:03:02;;;;;;;;;;;;;;;-1.76;52.18;92573.84;2038084;70;20075;-73
2022/03/06 04:05:28;;;;;;;;;;;;;;;-1.81;51.83;92583.72;2037932;70;20048;-74
2022/03/06 04:07:53;;;;;;;;;;;;;;;-1.86;51.81;92579.78;2037449;70;20063;-73
2022/03/06 04:10:19;;;;;;;;;;;;;;;-1.89;51.91;92578.09;2037572;70;20404;-74
2022/03/06 04:12:45;;;;;;;;;;;;;;;-1.89;52.66;92586.38;2037959;70;20050;-73
2022/03/06 04:15:10;;;;;;;;;;;;;;;-1.89;52.48;92582.88;2037307;70;20480;-73
2022/03/06 04:17:36;;;;;;;;;;;;;;;-2.16;53.70;92577.38;2037995;70;20477;-73
2022/03/06 04:20:01;;;;;;;;;;;;;;;-1.95;53.32;92577.47;2037957;70;20047;-73
2022/03/06 04:22:27;;;;;;;;;;;;;;;-2.08;53.55;92578.22;2037900;70;20060;-75
2022/03/06 04:24:52;;;;;;;;;;;;;;;-2.03;53.37;92568.34;2037576;70;20142;-74
2022/03/06 04:27:18;;;;;;;;;;;;;;;-1.98;53.94;92573.00;2038054;70;20059;-74
2022/03/06 04:29:43;;;;;;;;;;;;;;;-2.19;54.23;92578.47;2037907;70;20069;-74
2022/03/06 04:32:09;;;;;;;;;;;;;;;-2.02;53.83;92575.34;2037412;70;20107;-74
2022/03/06 04:34:35;;;;;;;;;;;;;;;-1.98;53.10;92584.03;2038124;70;20100;-74
2022/03/06 04:37:00;;;;;;;;;;;;;;;-1.99;52.44;92588.09;2037949;70;20048;-74
2022/03/06 04:39:26;;;;;;;;;;;;;;;-1.95;51.04;92585.75;2038538;70;20050;-73
2022/03/06 04:41:52;;;;;;;;;;;;;;;-2.01;50.79;92590.66;2038438;70;20139;-73
2022/03/06 04:44:17;;;;;;;;;;;;;;;-2.15;52.32;92583.66;2038262;70;20064;-73
2022/03/06 04:46:43;;;;;;;;;;;;;;;-2.23;52.58;92586.31;2040535;70;20470;-73
2022/03/06 04:49:08;;;;;;;;;;;;;;;-2.15;52.78;92586.41;2038465;70;20050;-73
2022/03/06 04:51:33;;;;;;;;;;;;;;;-2.19;52.81;92586.72;2038506;70;20048;-74
2022/03/06 04:53:59;;;;;;;;;;;;;;;-2.20;53.20;92581.72;2038366;70;20410;-74
2022/03/06 04:56:24;;;;;;;;;;;;;;;-2.25;53.02;92579.81;2038523;70;20056;-74
2022/03/06 04:58:50;;;;;;;;;;;;;;;-2.02;51.71;92589.13;2037674;70;20469;-73
2022/03/06 05:01:16;;;;;;;;;;;;;;;-2.16;52.75;92590.44;2038467;70;20087;-73
2022/03/06 05:03:41;;;;;;;;;;;;;;;-2.26;53.12;92597.66;2038442;70;20222;-73
2022/03/06 05:06:06;;;;;;;;;;;;;;;-2.26;53.60;92603.16;2037916;70;20100;-73
2022/03/06 05:08:32;;;;;;;;;;;;;;;-2.23;52.84;92600.09;2038349;70;20059;-73
2022/03/06 05:10:57;;;;;;;;;;;;;;;-2.22;52.14;92598.81;2038393;70;20537;-73
2022/03/06 05:13:23;;;;;;;;;;;;;;;-2.36;51.98;92598.06;2038516;70;20056;-73
2022/03/06 05:15:49;;;;;;;;;;;;;;;-2.33;52.17;92590.78;2038326;70;20103;-73
2022/03/06 05:18:14;;;;;;;;;;;;;;;-2.54;51.86;92596.16;2038468;70;20055;-74
2022/03/06 05:20:40;;;;;;;;;;;;;;;-2.43;51.87;92592.44;2038502;70;20143;-74
2022/03/06 05:23:05;;;;;;;;;;;;;;;-2.37;51.68;92593.84;2037820;70;20044;-73
2022/03/06 05:25:30;;;;;;;;;;;;;;;-2.81;54.88;92592.63;2038419;70;20076;-74
2022/03/06 05:27:56;;;;;;;;;;;;;;;-2.76;54.16;92594.53;2038334;70;20052;-74
2022/03/06 05:30:21;;;;;;;;;;;;;;;-2.71;53.72;92590.94;2038220;70;20450;-74
2022/03/06 05:32:48;;;;;;;;;;;;;;;-2.60;53.98;92601.78;2038307;70;20166;-74
2022/03/06 05:35:13;;;;;;;;;;;;;;;-2.45;52.70;92600.50;2038312;70;20048;-74
2022/03/06 05:37:39;;;;;;;;;;;;;;;-2.63;53.57;92599.31;2038387;70;20138;-73
2022/03/06 05:40:05;;;;;;;;;;;;;;;-2.64;54.62;92603.34;2038393;70;20111;-73
2022/03/06 05:42:30;;;;;;;;;;;;;;;-2.64;53.71;92608.88;2038248;70;20079;-74
2022/03/06 05:44:56;;;;;;;;;;;;;;;-2.76;55.12;92604.81;2038152;70;20119;-73
2022/03/06 05:47:21;;;;;;;;;;;;;;;-2.73;54.01;92601.00;2038255;70;20433;-73
2022/03/06 05:49:47;;;;;;;;;;;;;;;-2.70;53.66;92608.97;2038064;70;20060;-73
2022/03/06 05:52:12;;;;;;;;;;;;;;;-2.73;54.91;92612.03;2038204;70;20063;-73
2022/03/06 05:54:38;;;;;;;;;;;;;;;-2.62;53.49;92615.31;2038227;70;20212;-73
2022/03/06 05:57:03;;;;;;;;;;;;;;;-2.71;54.34;92612.22;2038256;70;20575;-74
2022/03/06 05:59:30;;;;;;;;;;;;;;;-2.65;54.29;92612.91;2038064;70;20497;-74
2022/03/06 06:01:55;;;;;;;;;;;;;;;-2.70;53.51;92620.00;2038297;70;20050;-74
2022/03/06 06:04:21;;;;;;;;;;;;;;;-2.66;53.59;92614.16;2038345;70;20491;-74
2022/03/06 06:06:46;;;;;;;;;;;;;;;-2.66;53.66;92614.88;2038224;70;20051;-73
2022/03/06 06:09:12;;;;;;;;;;;;;;;-2.73;55.11;92621.03;2038192;70;20043;-74
2022/03/06 06:11:37;;;;;;;;;;;;;;;-2.66;55.00;92614.16;2037880;70;20079;-74
2022/03/06 06:14:03;;;;;;;;;;;;;;;-2.73;55.46;92612.03;2038079;70;20485;-73
2022/03/06 06:16:29;;;;;;;;;;;;;;;-2.54;54.11;92612.69;2038191;70;20489;-74
2022/03/06 06:18:55;;;;;;;;;;;;;;;-2.69;54.20;92613.22;2038166;70;20052;-73
2022/03/06 06:21:20;;;;;;;;;;;;;;;-2.61;53.34;92618.84;2038293;70;20051;-73
2022/03/06 06:23:46;;;;;;;;;;;;;;;-2.72;53.70;92627.28;2039084;70;20091;-74
2022/03/06 06:26:12;;;;;;;;;;;;;;;-2.69;53.79;92617.97;2038166;70;20119;-74
2022/03/06 06:28:37;;;;;;;;;;;;;;;-3.14;56.75;92624.94;2038189;70;20213;-74
2022/03/06 06:31:04;;;;;;;;;;;;;;;-2.78;55.07;92632.91;2038155;70;20204;-74
2022/03/06 06:33:29;;;;;;;;;;;;;;;-2.76;55.42;92629.59;2038208;70;20496;-74
2022/03/06 06:35:55;;;;;;;;;;;;;;;-2.54;55.19;92636.75;2038128;70;20040;-73
2022/03/06 06:38:21;;;;;;;;;;;;;;;-2.48;55.32;92645.66;2038277;70;20139;-74
2022/03/06 06:40:51;;;;;;;;;;;;;;;-2.56;54.81;92642.81;2038146;70;20521;-73
2022/03/06 06:43:17;;;;;;;;;;;;;;;-2.43;54.41;92648.34;2038133;70;20449;-73
2022/03/06 06:45:44;;;;;;;;;;;;;;;-2.49;55.46;92650.44;2037984;70;20051;-74
2022/03/06 06:48:10;;;;;;;;;;;;;;;-2.39;55.07;92642.50;2038175;70;20131;-74
2022/03/06 06:50:35;;;;;;;;;;;;;;;-2.30;54.66;92644.84;2038097;70;20043;-73
2022/03/06 06:53:01;;;;;;;;;;;;;;;-2.61;56.57;92640.91;2038234;70;20040;-73
2022/03/06 06:55:26;;;;;;;;;;;;;;;-2.24;55.15;92648.25;2038136;70;20052;-73
2022/03/06 06:57:52;;;;;;;;;;;;;;;-2.20;55.08;92643.16;2038242;70;20064;-73
2022/03/06 07:00:17;;;;;;;;;;;;;;;-2.16;54.32;92651.84;2037950;70;20100;-73
2022/03/06 07:02:44;;;;;;;;;;;;;;;-2.10;53.79;92652.50;2038097;70;20143;-73
2022/03/06 07:05:11;;;;;;;;;;;;;;;-2.17;54.53;92653.13;2038045;70;20062;-74
2022/03/06 07:07:36;;;;;;;;;;;;;;;-2.10;55.00;92649.00;2038230;70;20119;-74
2022/03/06 07:10:03;;;;;;;;;;;;;;;-1.96;54.36;92652.50;2038082;70;20059;-73
2022/03/06 07:12:28;;;;;;;;;;;;;;;-2.01;54.86;92656.13;2038050;70;20076;-73
2022/03/06 07:14:53;;;;;;;;;;;;;;;-1.90;54.56;92655.91;2037996;70;20040;-73
2022/03/06 07:17:19;;;;;;;;;;;;;;;-1.95;54.10;92654.00;2037529;70;20048;-73
2022/03/06 07:19:44;;;;;;;;;;;;;;;-1.88;53.71;92650.56;2038045;70;20497;-73
2022/03/06 07:22:10;;;;;;;;;;;;;;;-1.90;54.28;92659.41;2038016;70;20401;-73
2022/03/06 07:24:35;;;;;;;;;;;;;;;-2.20;56.11;92653.44;2038163;70;20048;-73
2022/03/06 07:27:01;;;;;;;;;;;;;;;-1.96;54.60;92650.50;2037992;70;20143;-73
2022/03/06 07:29:27;;;;;;;;;;;;;;;-1.87;54.37;92647.31;2038015;70;20141;-73
2022/03/06 07:31:52;;;;;;;;;;;;;;;-1.78;53.36;92645.38;2038170;70;20055;-73
2022/03/06 07:34:18;;;;;;;;;;;;;;;-1.77;54.01;92646.88;2038042;70;20063;-74
2022/03/06 07:36:43;;;;;;;;;;;;;;;-1.78;54.40;92640.59;2038043;70;20048;-74
2022/03/06 07:39:08;;;;;;;;;;;;;;;-1.78;54.61;92648.88;2037905;70;20048;-73
2022/03/06 07:41:34;;;;;;;;;;;;;;;-1.70;54.63;92640.69;2037934;70;20051;-73
2022/03/06 07:43:59;;;;;;;;;;;;;;;-1.59;54.45;92648.75;2037922;70;20496;-73
2022/03/06 07:46:25;;;;;;;;;;;;;;;-1.54;53.31;92645.13;2038011;70;20166;-73
2022/03/06 07:48:50;;;;;;;;;;;;;;;-1.26;52.05;92644.53;2037996;70;20496;-72
2022/03/06 07:51:16;;;;;;;;;;;;;;;-1.25;52.46;92636.97;2037971;70;20055;-73
2022/03/06 07:53:41;;;;;;;;;;;;;;;-1.13;52.82;92646.53;2038072;70;20056;-72
2022/03/06 07:56:07;;;;;;;;;;;;;;;-1.10;52.28;92637.13;2037977;70;20139;-73
2022/03/06 07:58:32;;;;;;;;;;;;;;;-0.86;51.38;92633.34;2037948;70;20127;-72
2022/03/06 08:00:58;;;;;;;;;;;;;;;-1.25;52.92;92643.25;2037868;70;20115;-73
2022/03/06 08:03:23;;;;;;;;;;;;;;;-0.98;52.94;92623.81;2037976;70;20052;-73
2022/03/06 08:05:49;;;;;;;;;;;;;;;-0.72;51.85;92625.72;2037920;70;20044;-73
2022/03/06 08:08:14;;;;;;;;;;;;;;;-0.64;52.12;92626.50;2037902;70;20048;-73
2022/03/06 08:10:39;;;;;;;;;;;;;;;-0.52;52.43;92622.94;2037386;70;20473;-73
2022/03/06 08:13:05;;;;;;;;;;;;;;;-0.20;50.96;92621.16;2038319;70;20048;-73
2022/03/06 08:15:31;;;;;;;;;;;;;;;0.37;49.93;92619.09;2038353;70;20495;-74
2022/03/06 08:17:56;;;;;;;;;;;;;;;0.20;50.97;92619.53;2038471;70;20047;-73
2022/03/06 08:20:21;;;;;;;;;;;;;;;0.83;49.25;92619.25;2038549;70;20048;-73
2022/03/06 08:22:47;;;;;;;;;;;;;;;0.94;47.76;92621.69;2040668;70;20075;-74
2022/03/06 08:25:12;;;;;;;;;;;;;;;1.36;46.69;92617.88;2038498;70;20068;-74
2022/03/06 08:27:38;;;;;;;;;;;;;;;1.89;45.61;92617.91;2038369;70;20080;-73
2022/03/06 08:30:05;;;;;;;;;;;;;;;1.69;45.38;92616.03;2037817;70;20128;-74
2022/03/06 08:32:30;;;;;;;;;;;;;;;1.92;44.74;92610.47;2038419;70;20099;-74
2022/03/06 08:34:56;;;;;;;;;;;;;;;1.90;44.36;92611.03;2038528;70;20424;-75
2022/03/06 08:37:22;;;;;;;;;;;;;;;3.23;41.67;92603.91;2038550;70;20055;-74
2022/03/06 08:39:48;;;;;;;;;;;;;;;3.10;42.18;92600.63;2038524;70;20589;-74
2022/03/06 08:42:14;;;;;;;;;;;;;;;3.61;42.06;92607.72;2037997;70;20424;-76
2022/03/06 08:44:39;;;;;;;;;;;;;;;3.66;39.21;92599.16;2038242;70;20469;-75
2022/03/06 08:47:06;;;;;;;;;;;;;;;5.30;37.80;92599.81;2038460;70;20142;-74
2022/03/06 08:49:31;;;;;;;;;;;;;;;5.08;36.99;92592.47;2038355;70;20142;-74
2022/03/06 08:51:57;;;;;;;;;;;;;;;5.30;37.70;92593.50;2038380;70;20078;-75
2022/03/06 08:54:23;;;;;;;;;;;;;;;6.02;35.72;92586.47;2038393;70;20083;-75
2022/03/06 08:56:48;;;;;;;;;;;;;;;6.38;35.35;92589.78;2038342;70;20602;-75
2022/03/06 08:59:13;;;;;;;;;;;;;;;5.34;34.13;92588.97;2038186;70;20461;-73
2022/03/06 09:01:39;;;;;;;;;;;;;;;5.82;35.73;92582.84;2038334;70;20143;-75
2022/03/06 09:04:06;;;;;;;;;;;;;;;6.07;34.92;92579.84;2038494;70;20075;-77
2022/03/06 09:06:33;;;;;;;;;;;;;;;4.73;33.24;92584.19;2037780;70;20159;-78
2022/03/06 09:08:58;;;;;;;;;;;;;;;5.40;33.69;92579.59;2038397;70;20578;-74
2022/03/06 09:11:24;;;;;;;;;;;;;;;5.80;33.54;92573.56;2038475;70;20048;-75
2022/03/06 09:13:49;;;;;;;;;;;;;;;6.76;33.56;92572.28;2038245;70;20560;-75
2022/03/06 09:16:14;;;;;;;;;;;;;;;7.79;31.65;92578.84;2038344;70;20048;-74
2022/03/06 09:18:40;;;;;;;;;;;;;;;7.13;32.03;92576.34;2038340;70;20056;-75
2022/03/06 09:21:06;;;;;;;;;;;;;;;7.00;32.06;92571.22;2038324;70;20063;-75
2022/03/06 09:23:31;;;;;;;;;;;;;;;7.92;32.38;92571.25;2038437;70;20048;-75
2022/03/06 09:25:57;;;;;;;;;;;;;;;8.15;31.19;92572.19;2038349;70;20095;-75
2022/03/06 09:28:22;;;;;;;;;;;;;;;7.89;29.72;92567.59;2038380;70;20044;-75
2022/03/06 09:30:47;;;;;;;;;;;;;;;9.01;29.24;92568.66;2038234;70;20433;-74
2022/03/06 09:33:14;;;;;;;;;;;;;;;8.93;29.40;92568.13;2038359;70;20050;-74
2022/03/06 09:35:39;;;;;;;;;;;;;;;9.68;28.72;92567.97;2038282;70;20504;-75
2022/03/06 09:38:05;;;;;;;;;;;;;;;9.23;28.54;92567.25;2038319;70;20044;-75
2022/03/06 09:40:30;;;;;;;;;;;;;;;9.38;28.48;92560.47;2038339;70;20040;-75
2022/03/06 09:42:56;;;;;;;;;;;;;;;9.58;28.44;92558.19;2038243;70;20114;-75
2022/03/06 09:45:22;;;;;;;;;;;;;;;9.98;27.44;92551.47;2038190;70;20044;-75
2022/03/06 09:47:48;;;;;;;;;;;;;;;9.61;28.81;92559.78;2037501;70;20068;-75
2022/03/06 09:50:14;;;;;;;;;;;;;;;10.98;26.32;92550.97;2037979;70;20074;-74
2022/03/06 09:52:40;;;;;;;;;;;;;;;8.22;28.09;92548.09;2040052;70;20078;-75
2022/03/06 09:55:06;;;;;;;;;;;;;;;9.14;28.13;92542.81;2041177;70;20048;-74
2022/03/06 09:57:31;;;;;;;;;;;;;;;9.21;28.63;92543.91;2041148;70;20063;-74
2022/03/06 09:59:57;;;;;;;;;;;;;;;9.26;27.56;92546.41;2041183;70;20051;-73
2022/03/06 10:02:22;;;;;;;;;;;;;;;10.20;28.11;92538.03;2041409;70;20180;-74
2022/03/06 10:04:50;;;;;;;;;;;;;;;9.91;27.38;92533.53;2041114;70;20129;-72
2022/03/06 10:07:17;;;;;;;;;;;;;;;10.40;26.68;92542.09;2041050;70;20072;-73
2022/03/06 10:09:44;;;;;;;;;;;;;;;10.05;27.52;92535.72;2040982;70;20606;-71
2022/03/06 10:12:22;;;;;;;;;;;;;;;9.27;27.41;92536.63;2041114;70;20174;-73
2022/03/06 10:14:48;;;;;;;;;;;;;;;9.99;27.41;92529.72;2041099;70;20067;-73
2022/03/06 10:17:23;;;;;;;;;;;;;;;9.86;26.63;92533.91;2040710;70;20155;-73
2022/03/06 10:20:04;;;;;;;;;;;;;;;11.12;26.63;92535.59;2041250;70;20054;-73
2022/03/06 10:22:31;;;;;;;;;;;;;;;10.76;25.99;92530.72;2041004;70;20500;-73
2022/03/06 10:24:58;;;;;;;;;;;;;;;11.33;26.30;92531.13;2041098;70;20068;-73
2022/03/06 10:27:44;;;;;;;;;;;;;;;11.41;26.29;92528.75;2041026;70;20832;-74
2022/03/06 10:30:23;;;;;;;;;;;;;;;12.06;25.62;92523.78;2040888;70;20044;-73
2022/03/06 10:32:48;;;;;;;;;;;;;;;12.56;24.74;92518.56;2040978;70;20166;-73
2022/03/06 10:35:13;;;;;;;;;;;;;;;12.96;24.20;92520.53;2040960;70;20067;-73
2022/03/06 10:37:39;;;;;;;;;;;;;;;11.22;24.83;92520.63;2041128;70;20491;-73
2022/03/06 10:40:05;;;;;;;;;;;;;;;10.60;24.52;92520.00;2041134;70;20423;-74
2022/03/06 10:42:30;;;;;;;;;;;;;;;10.30;24.50;92518.22;2041235;70;20055;-74
2022/03/06 10:44:55;;;;;;;;;;;;;;;10.87;24.68;92521.50;2041003;70;20063;-74
2022/03/06 10:47:21;;;;;;;;;;;;;;;12.87;23.52;92515.13;2041146;70;20048;-74
2022/03/06 10:50:03;;;;;;;;;;;;;;;12.96;22.72;92512.06;2041085;70;20131;-75
2022/03/06 10:52:29;;;;;;;;;;;;;;;13.00;23.23;92517.19;2041183;70;20051;-74
2022/03/06 10:54:56;;;;;;;;;;;;;;;13.37;22.31;92511.22;2041121;70;20047;-74
2022/03/06 10:57:22;;;;;;;;;;;;;;;12.11;23.09;92514.16;2041077;70;20051;-74
2022/03/06 10:59:49;;;;;;;;;;;;;;;12.94;21.89;92511.25;2040907;70;20083;-74
2022/03/06 11:02:14;;;;;;;;;;;;;;;11.63;22.61;92509.47;2041188;70;20580;-74
2022/03/06 11:04:40;;;;;;;;;;;;;;;13.77;22.31;92500.34;2041055;70;20134;-75
2022/03/06 11:07:06;;;;;;;;;;;;;;;15.23;20.95;92502.38;2041295;70;20083;-74
2022/03/06 11:09:32;;;;;;;;;;;;;;;16.11;21.36;92505.78;2040861;70;20087;-75
2022/03/06 11:11:58;;;;;;;;;;;;;;;16.03;20.10;92494.84;2040909;70;20041;-74
2022/03/06 11:14:24;;;;;;;;;;;;;;;17.83;19.31;92506.69;2040910;70;20050;-75
2022/03/06 11:16:50;;;;;;;;;;;;;;;18.85;18.05;92498.97;2040998;70;20064;-75
2022/03/06 11:19:15;;;;;;;;;;;;;;;20.45;17.42;92494.97;2040973;70;20142;-74
2022/03/06 11:21:45;;;;;;;;;;;;;;;20.51;16.41;92492.97;2041161;70;20044;-74
2022/03/06 11:24:22;;;;;;;;;;;;;;;20.31;14.74;92498.97;2041020;70;20576;-74
2022/03/06 11:27:02;;;;;;;;;;;;;;;20.25;16.36;92492.38;2040936;70;20116;-74
2022/03/06 11:29:46;;;;;;;;;;;;;;;22.29;15.14;92487.47;2040893;70;20054;-73
2022/03/06 11:32:11;;;;;;;;;;;;;;;23.19;14.79;92488.59;2040906;70;20048;-73
2022/03/06 11:34:39;;;;;;;;;;;;;;;24.53;14.07;92491.88;2040877;70;20146;-74
2022/03/06 11:37:06;;;;;;;;;;;;;;;20.93;14.49;92483.06;2040965;70;20082;-74
2022/03/06 11:39:32;;;;;;;;;;;;;;;22.46;13.71;92482.69;2040968;70;20529;-74
2022/03/06 11:41:58;;;;;;;;;;;;;;;22.81;14.41;92467.34;2040934;70;20110;-75
2022/03/06 11:44:32;;;;;;;;;;;;;;;23.83;13.83;92468.41;2041003;70;20492;-74
2022/03/06 11:46:57;;;;;;;;;;;;;;;24.11;13.55;92464.28;2040882;70;20044;-74
2022/03/06 11:49:31;;;;;;;;;;;;;;;23.59;13.51;92457.41;2040842;70;20146;-75
2022/03/06 11:51:57;;;;;;;;;;;;;;;24.02;13.15;92454.16;2041105;70;20588;-74
2022/03/06 11:54:23;;;;;;;;;;;;;;;23.23;13.21;92448.44;2040805;70;20115;-74
2022/03/06 11:56:52;;;;;;;;;;;;;;;23.61;13.89;92450.94;2040825;70;20500;-76
2022/03/06 11:59:17;;;;;;;;;;;;;;;25.55;13.42;92446.88;2040603;70;20048;-76
2022/03/06 12:01:47;;;;;;;;;;;;;;;23.17;12.85;92440.47;2040292;70;20056;-75
2022/03/06 12:04:14;;;;;;;;;;;;;;;23.38;13.13;92437.81;2040883;70;20083;-76
2022/03/06 12:06:40;;;;;;;;;;;;;;;21.98;12.50;92441.16;2040787;70;20151;-75
2022/03/06 12:09:16;;;;;;;;;;;;;;;21.52;13.49;92432.59;2040713;70;20420;-75
2022/03/06 12:11:42;;;;;;;;;;;;;;;20.74;14.01;92427.63;2040926;70;20214;-77
2022/03/06 12:14:16;;;;;;;;;;;;;;;20.89;13.30;92414.31;2040767;70;20050;-79
2022/03/06 12:17:00;;;;;;;;;;;;;;;20.00;14.35;92423.28;2041015;70;20543;-84
2022/03/06 12:19:26;;;;;;;;;;;;;;;21.76;13.54;92417.91;2040974;70;20055;-80
2022/03/06 12:21:51;;;;;;;;;;;;;;;19.07;15.40;92418.25;2040952;70;20060;-80
2022/03/06 12:24:29;;;;;;;;;;;;;;;19.84;15.12;92411.53;2040756;70;20143;-81
2022/03/06 12:26:54;;;;;;;;;;;;;;;23.46;14.33;92409.13;2040831;70;20035;-80
2022/03/06 12:29:39;;;;;;;;;;;;;;;19.01;14.86;92408.16;2040830;70;20187;-81
2022/03/06 12:32:23;;;;;;;;;;;;;;;18.38;16.38;92391.50;2040991;70;20063;-78
2022/03/06 12:34:53;;;;;;;;;;;;;;;19.42;15.79;92380.56;2040840;70;20178;-79
2022/03/06 12:37:24;;;;;;;;;;;;;;;21.41;14.81;92380.16;2040853;70;20138;-77
2022/03/06 12:39:50;;;;;;;;;;;;;;;23.67;13.23;92387.78;2040878;70;20049;-78
2022/03/06 12:42:22;;;;;;;;;;;;;;;19.01;15.40;92365.34;2041079;70;20400;-78
2022/03/06 12:44:52;;;;;;;;;;;;;;;20.49;14.68;92380.72;2040628;70;20051;-74